sensor_id;sensor_type;location;lat;lon;timestamp;temperature;humidity
70107;DHT22;57473;37.508;15.080;2023-07-13T00:02:08;26.90;61.70
70107;DHT22;57473;37.508;15.080;2023-07-13T00:04:36;26.90;61.20
70107;DHT22;57473;37.508;15.080;2023-07-13T00:07:04;26.80;61.00
70107;DHT22;57473;37.508;15.080;2023-07-13T00:09:31;26.80;60.70
70107;DHT22;57473;37.508;15.080;2023-07-13T00:11:58;26.90;60.00
70107;DHT22;57473;37.508;15.080;2023-07-13T00:14:27;26.90;59.80
70107;DHT22;57473;37.508;15.080;2023-07-13T00:16:55;26.90;59.80
70107;DHT22;57473;37.508;15.080;2023-07-13T00:19:22;26.80;60.50
70107;DHT22;57473;37.508;15.080;2023-07-13T00:21:49;26.80;60.90
70107;DHT22;57473;37.508;15.080;2023-07-13T00:24:18;26.70;61.70
70107;DHT22;57473;37.508;15.080;2023-07-13T00:26:51;26.70;61.90
70107;DHT22;57473;37.508;15.080;2023-07-13T00:29:19;26.60;62.40
70107;DHT22;57473;37.508;15.080;2023-07-13T00:31:48;26.50;62.70
70107;DHT22;57473;37.508;15.080;2023-07-13T00:34:16;26.50;63.10
70107;DHT22;57473;37.508;15.080;2023-07-13T00:36:43;26.50;63.40
70107;DHT22;57473;37.508;15.080;2023-07-13T00:39:10;26.50;62.70
70107;DHT22;57473;37.508;15.080;2023-07-13T00:41:38;26.50;62.60
70107;DHT22;57473;37.508;15.080;2023-07-13T00:44:05;26.50;62.00
70107;DHT22;57473;37.508;15.080;2023-07-13T00:46:35;26.50;62.20
70107;DHT22;57473;37.508;15.080;2023-07-13T00:49:08;26.40;62.50
70107;DHT22;57473;37.508;15.080;2023-07-13T00:51:48;26.40;62.30
70107;DHT22;57473;37.508;15.080;2023-07-13T00:54:22;26.40;63.10
70107;DHT22;57473;37.508;15.080;2023-07-13T00:56:53;26.30;63.10
70107;DHT22;57473;37.508;15.080;2023-07-13T00:59:22;26.30;63.00
70107;DHT22;57473;37.508;15.080;2023-07-13T01:01:51;26.20;63.50
70107;DHT22;57473;37.508;15.080;2023-07-13T01:04:19;26.20;65.00
70107;DHT22;57473;37.508;15.080;2023-07-13T01:06:46;26.20;67.10
70107;DHT22;57473;37.508;15.080;2023-07-13T01:09:14;26.20;67.50
70107;DHT22;57473;37.508;15.080;2023-07-13T01:11:43;26.20;67.50
70107;DHT22;57473;37.508;15.080;2023-07-13T01:14:12;26.20;67.60
70107;DHT22;57473;37.508;15.080;2023-07-13T01:16:44;26.20;67.90
70107;DHT22;57473;37.508;15.080;2023-07-13T01:22:11;26.20;70.50
70107;DHT22;57473;37.508;15.080;2023-07-13T01:24:42;26.20;71.40
70107;DHT22;57473;37.508;15.080;2023-07-13T01:27:12;26.20;71.90
70107;DHT22;57473;37.508;15.080;2023-07-13T01:29:42;26.20;72.20
70107;DHT22;57473;37.508;15.080;2023-07-13T01:32:12;26.20;72.70
70107;DHT22;57473;37.508;15.080;2023-07-13T01:34:40;26.10;73.50
70107;DHT22;57473;37.508;15.080;2023-07-13T01:37:11;26.10;74.20
70107;DHT22;57473;37.508;15.080;2023-07-13T01:39:39;26.00;74.90
70107;DHT22;57473;37.508;15.080;2023-07-13T01:42:06;26.00;75.20
70107;DHT22;57473;37.508;15.080;2023-07-13T01:44:33;25.90;75.40
70107;DHT22;57473;37.508;15.080;2023-07-13T01:47:01;25.90;75.70
70107;DHT22;57473;37.508;15.080;2023-07-13T01:49:29;25.90;75.90
70107;DHT22;57473;37.508;15.080;2023-07-13T01:51:56;25.90;76.00
70107;DHT22;57473;37.508;15.080;2023-07-13T01:54:24;25.80;76.20
70107;DHT22;57473;37.508;15.080;2023-07-13T01:56:51;25.80;76.70
70107;DHT22;57473;37.508;15.080;2023-07-13T01:59:18;25.70;76.80
70107;DHT22;57473;37.508;15.080;2023-07-13T02:01:46;25.70;77.00
70107;DHT22;57473;37.508;15.080;2023-07-13T02:04:14;25.70;77.30
70107;DHT22;57473;37.508;15.080;2023-07-13T02:06:41;25.70;77.70
70107;DHT22;57473;37.508;15.080;2023-07-13T02:09:08;25.70;77.80
70107;DHT22;57473;37.508;15.080;2023-07-13T02:11:36;25.70;78.00
70107;DHT22;57473;37.508;15.080;2023-07-13T02:14:03;25.60;78.20
70107;DHT22;57473;37.508;15.080;2023-07-13T02:16:30;25.60;78.30
70107;DHT22;57473;37.508;15.080;2023-07-13T02:18:58;25.60;78.60
70107;DHT22;57473;37.508;15.080;2023-07-13T02:21:27;25.60;78.70
70107;DHT22;57473;37.508;15.080;2023-07-13T02:23:54;25.60;78.70
70107;DHT22;57473;37.508;15.080;2023-07-13T02:26:22;25.60;78.70
70107;DHT22;57473;37.508;15.080;2023-07-13T02:28:49;25.60;78.60
70107;DHT22;57473;37.508;15.080;2023-07-13T02:31:19;25.60;78.70
70107;DHT22;57473;37.508;15.080;2023-07-13T02:33:47;25.60;78.80
70107;DHT22;57473;37.508;15.080;2023-07-13T02:36:14;25.60;78.90
70107;DHT22;57473;37.508;15.080;2023-07-13T02:38:44;25.60;78.90
70107;DHT22;57473;37.508;15.080;2023-07-13T02:41:12;25.50;78.90
70107;DHT22;57473;37.508;15.080;2023-07-13T02:43:40;25.60;78.60
70107;DHT22;57473;37.508;15.080;2023-07-13T02:46:08;25.60;78.80
70107;DHT22;57473;37.508;15.080;2023-07-13T02:48:38;25.70;77.60
70107;DHT22;57473;37.508;15.080;2023-07-13T02:51:06;25.70;77.10
70107;DHT22;57473;37.508;15.080;2023-07-13T02:53:34;25.70;77.40
70107;DHT22;57473;37.508;15.080;2023-07-13T02:56:04;25.70;77.00
70107;DHT22;57473;37.508;15.080;2023-07-13T02:58:32;25.70;77.00
70107;DHT22;57473;37.508;15.080;2023-07-13T03:01:09;25.60;77.40
70107;DHT22;57473;37.508;15.080;2023-07-13T03:03:38;25.60;77.40
70107;DHT22;57473;37.508;15.080;2023-07-13T03:06:06;25.60;77.50
70107;DHT22;57473;37.508;15.080;2023-07-13T03:08:44;25.60;77.40
70107;DHT22;57473;37.508;15.080;2023-07-13T03:11:14;25.60;77.40
70107;DHT22;57473;37.508;15.080;2023-07-13T03:13:43;25.60;77.40
70107;DHT22;57473;37.508;15.080;2023-07-13T03:16:11;25.50;77.60
70107;DHT22;57473;37.508;15.080;2023-07-13T03:18:46;25.50;77.70
70107;DHT22;57473;37.508;15.080;2023-07-13T03:21:14;25.40;77.70
70107;DHT22;57473;37.508;15.080;2023-07-13T03:23:42;25.40;77.60
70107;DHT22;57473;37.508;15.080;2023-07-13T03:26:14;25.40;77.60
70107;DHT22;57473;37.508;15.080;2023-07-13T03:28:42;25.30;77.70
70107;DHT22;57473;37.508;15.080;2023-07-13T03:31:17;25.30;77.50
70107;DHT22;57473;37.508;15.080;2023-07-13T03:33:45;25.30;77.00
70107;DHT22;57473;37.508;15.080;2023-07-13T03:36:16;25.30;76.30
70107;DHT22;57473;37.508;15.080;2023-07-13T03:38:53;25.20;76.60
70107;DHT22;57473;37.508;15.080;2023-07-13T03:41:25;25.20;76.50
70107;DHT22;57473;37.508;15.080;2023-07-13T03:43:54;25.20;76.00
70107;DHT22;57473;37.508;15.080;2023-07-13T03:46:24;25.20;75.30
70107;DHT22;57473;37.508;15.080;2023-07-13T03:48:51;25.20;75.00
70107;DHT22;57473;37.508;15.080;2023-07-13T03:51:19;25.20;74.20
70107;DHT22;57473;37.508;15.080;2023-07-13T03:53:47;25.20;74.00
70107;DHT22;57473;37.508;15.080;2023-07-13T03:56:18;25.10;72.80
70107;DHT22;57473;37.508;15.080;2023-07-13T03:58:48;25.10;71.60
70107;DHT22;57473;37.508;15.080;2023-07-13T04:01:19;25.20;70.30
70107;DHT22;57473;37.508;15.080;2023-07-13T04:03:47;25.20;69.70
70107;DHT22;57473;37.508;15.080;2023-07-13T04:06:25;25.20;69.60
70107;DHT22;57473;37.508;15.080;2023-07-13T04:08:55;25.20;69.90
70107;DHT22;57473;37.508;15.080;2023-07-13T04:11:25;25.20;70.10
70107;DHT22;57473;37.508;15.080;2023-07-13T04:13:52;25.20;70.00
70107;DHT22;57473;37.508;15.080;2023-07-13T04:16:20;25.20;70.20
70107;DHT22;57473;37.508;15.080;2023-07-13T04:18:48;25.20;70.70
70107;DHT22;57473;37.508;15.080;2023-07-13T04:21:16;25.30;70.90
70107;DHT22;57473;37.508;15.080;2023-07-13T04:23:44;25.30;69.90
70107;DHT22;57473;37.508;15.080;2023-07-13T04:26:11;25.40;68.40
70107;DHT22;57473;37.508;15.080;2023-07-13T04:28:39;25.40;68.20
70107;DHT22;57473;37.508;15.080;2023-07-13T04:31:06;25.40;66.60
70107;DHT22;57473;37.508;15.080;2023-07-13T04:33:33;25.50;65.90
70107;DHT22;57473;37.508;15.080;2023-07-13T04:36:01;25.50;65.60
70107;DHT22;57473;37.508;15.080;2023-07-13T04:38:30;25.50;65.70
70107;DHT22;57473;37.508;15.080;2023-07-13T04:41:01;25.50;65.50
70107;DHT22;57473;37.508;15.080;2023-07-13T04:43:30;25.60;65.60
70107;DHT22;57473;37.508;15.080;2023-07-13T04:46:06;25.60;65.40
70107;DHT22;57473;37.508;15.080;2023-07-13T04:48:34;25.70;65.40
70107;DHT22;57473;37.508;15.080;2023-07-13T04:51:02;25.70;65.20
70107;DHT22;57473;37.508;15.080;2023-07-13T04:53:30;25.70;64.10
70107;DHT22;57473;37.508;15.080;2023-07-13T04:55:57;25.80;62.80
70107;DHT22;57473;37.508;15.080;2023-07-13T04:58:25;25.90;62.30
70107;DHT22;57473;37.508;15.080;2023-07-13T05:00:53;25.90;62.00
70107;DHT22;57473;37.508;15.080;2023-07-13T05:03:26;26.00;61.70
70107;DHT22;57473;37.508;15.080;2023-07-13T05:06:13;26.00;62.10
70107;DHT22;57473;37.508;15.080;2023-07-13T05:08:41;26.10;61.60
70107;DHT22;57473;37.508;15.080;2023-07-13T05:11:08;26.20;59.70
70107;DHT22;57473;37.508;15.080;2023-07-13T05:13:36;26.30;59.10
70107;DHT22;57473;37.508;15.080;2023-07-13T05:16:05;26.40;59.40
70107;DHT22;57473;37.508;15.080;2023-07-13T05:18:36;26.40;58.90
70107;DHT22;57473;37.508;15.080;2023-07-13T05:21:09;26.60;59.80
70107;DHT22;57473;37.508;15.080;2023-07-13T05:23:38;26.60;60.30
70107;DHT22;57473;37.508;15.080;2023-07-13T05:26:06;26.60;60.90
70107;DHT22;57473;37.508;15.080;2023-07-13T05:28:36;26.60;61.00
70107;DHT22;57473;37.508;15.080;2023-07-13T05:31:04;26.60;61.30
70107;DHT22;57473;37.508;15.080;2023-07-13T05:33:33;26.70;61.10
70107;DHT22;57473;37.508;15.080;2023-07-13T05:36:00;26.80;61.00
70107;DHT22;57473;37.508;15.080;2023-07-13T05:38:28;26.90;60.80
70107;DHT22;57473;37.508;15.080;2023-07-13T05:40:57;27.00;60.40
70107;DHT22;57473;37.508;15.080;2023-07-13T05:43:24;27.10;60.10
70107;DHT22;57473;37.508;15.080;2023-07-13T05:45:56;27.10;59.20
70107;DHT22;57473;37.508;15.080;2023-07-13T05:48:23;27.30;59.10
70107;DHT22;57473;37.508;15.080;2023-07-13T05:50:51;27.40;57.70
70107;DHT22;57473;37.508;15.080;2023-07-13T05:53:18;27.50;56.50
70107;DHT22;57473;37.508;15.080;2023-07-13T05:55:46;27.60;56.50
70107;DHT22;57473;37.508;15.080;2023-07-13T05:58:15;27.70;56.90
70107;DHT22;57473;37.508;15.080;2023-07-13T06:00:43;27.90;56.60
70107;DHT22;57473;37.508;15.080;2023-07-13T06:03:10;27.90;56.80
70107;DHT22;57473;37.508;15.080;2023-07-13T06:05:38;28.10;56.30
70107;DHT22;57473;37.508;15.080;2023-07-13T06:08:07;28.20;56.10
70107;DHT22;57473;37.508;15.080;2023-07-13T06:10:36;28.20;55.30
70107;DHT22;57473;37.508;15.080;2023-07-13T06:13:03;28.10;55.60
70107;DHT22;57473;37.508;15.080;2023-07-13T06:15:30;28.10;55.60
70107;DHT22;57473;37.508;15.080;2023-07-13T06:17:58;28.10;55.80
70107;DHT22;57473;37.508;15.080;2023-07-13T06:20:25;28.10;55.50
70107;DHT22;57473;37.508;15.080;2023-07-13T06:22:52;28.20;55.50
70107;DHT22;57473;37.508;15.080;2023-07-13T06:25:20;28.20;55.30
70107;DHT22;57473;37.508;15.080;2023-07-13T06:27:47;28.30;55.10
70107;DHT22;57473;37.508;15.080;2023-07-13T06:30:15;28.20;55.40
70107;DHT22;57473;37.508;15.080;2023-07-13T06:32:42;28.30;55.30
70107;DHT22;57473;37.508;15.080;2023-07-13T06:35:10;28.40;55.30
70107;DHT22;57473;37.508;15.080;2023-07-13T06:37:39;28.40;55.40
70107;DHT22;57473;37.508;15.080;2023-07-13T06:40:10;28.60;56.30
70107;DHT22;57473;37.508;15.080;2023-07-13T06:42:47;28.70;56.40
70107;DHT22;57473;37.508;15.080;2023-07-13T06:45:17;28.90;56.70
70107;DHT22;57473;37.508;15.080;2023-07-13T06:47:44;29.10;56.30
70107;DHT22;57473;37.508;15.080;2023-07-13T06:50:12;29.40;55.70
70107;DHT22;57473;37.508;15.080;2023-07-13T06:52:49;29.60;55.10
70107;DHT22;57473;37.508;15.080;2023-07-13T06:55:53;29.80;55.60
70107;DHT22;57473;37.508;15.080;2023-07-13T06:58:24;30.00;55.90
70107;DHT22;57473;37.508;15.080;2023-07-13T07:00:55;30.20;55.50
70107;DHT22;57473;37.508;15.080;2023-07-13T07:03:23;30.40;54.30
70107;DHT22;57473;37.508;15.080;2023-07-13T07:05:50;30.60;53.70
70107;DHT22;57473;37.508;15.080;2023-07-13T07:08:23;30.70;53.50
70107;DHT22;57473;37.508;15.080;2023-07-13T07:14:00;30.90;44.60
70107;DHT22;57473;37.508;15.080;2023-07-13T07:16:27;31.10;44.40
70107;DHT22;57473;37.508;15.080;2023-07-13T07:18:57;31.10;44.30
70107;DHT22;57473;37.508;15.080;2023-07-13T07:21:38;31.20;44.30
70107;DHT22;57473;37.508;15.080;2023-07-13T07:24:15;31.40;43.90
70107;DHT22;57473;37.508;15.080;2023-07-13T07:26:44;31.50;44.00
70107;DHT22;57473;37.508;15.080;2023-07-13T07:29:14;31.70;43.30
70107;DHT22;57473;37.508;15.080;2023-07-13T07:31:51;31.80;43.70
70107;DHT22;57473;37.508;15.080;2023-07-13T07:34:32;31.80;43.50
70107;DHT22;57473;37.508;15.080;2023-07-13T07:37:00;32.00;43.20
70107;DHT22;57473;37.508;15.080;2023-07-13T07:39:34;32.10;43.00
70107;DHT22;57473;37.508;15.080;2023-07-13T07:42:36;32.30;43.00
70107;DHT22;57473;37.508;15.080;2023-07-13T07:45:03;32.40;43.00
70107;DHT22;57473;37.508;15.080;2023-07-13T07:47:33;32.60;42.20
70107;DHT22;57473;37.508;15.080;2023-07-13T07:50:04;32.70;41.80
70107;DHT22;57473;37.508;15.080;2023-07-13T07:52:33;32.80;41.60
70107;DHT22;57473;37.508;15.080;2023-07-13T07:55:15;33.00;41.50
70107;DHT22;57473;37.508;15.080;2023-07-13T07:57:48;32.90;44.10
70107;DHT22;57473;37.508;15.080;2023-07-13T08:00:19;33.00;45.30
70107;DHT22;57473;37.508;15.080;2023-07-13T08:02:52;33.10;49.30
70107;DHT22;57473;37.508;15.080;2023-07-13T08:05:40;33.10;50.50
70107;DHT22;57473;37.508;15.080;2023-07-13T08:08:28;33.10;48.80
70107;DHT22;57473;37.508;15.080;2023-07-13T08:10:56;32.90;52.30
70107;DHT22;57473;37.508;15.080;2023-07-13T08:13:43;32.80;53.00
70107;DHT22;57473;37.508;15.080;2023-07-13T08:16:11;32.80;52.90
70107;DHT22;57473;37.508;15.080;2023-07-13T08:18:39;32.70;54.20
70107;DHT22;57473;37.508;15.080;2023-07-13T08:21:07;32.50;54.90
70107;DHT22;57473;37.508;15.080;2023-07-13T08:23:36;32.50;55.10
70107;DHT22;57473;37.508;15.080;2023-07-13T08:26:03;32.30;56.80
70107;DHT22;57473;37.508;15.080;2023-07-13T08:28:32;32.30;56.60
70107;DHT22;57473;37.508;15.080;2023-07-13T08:31:04;32.30;56.10
70107;DHT22;57473;37.508;15.080;2023-07-13T08:33:32;32.30;56.00
70107;DHT22;57473;37.508;15.080;2023-07-13T08:35:59;32.40;55.70
70107;DHT22;57473;37.508;15.080;2023-07-13T08:38:26;32.50;55.20
70107;DHT22;57473;37.508;15.080;2023-07-13T08:40:55;32.50;55.30
70107;DHT22;57473;37.508;15.080;2023-07-13T08:43:29;32.60;54.70
70107;DHT22;57473;37.508;15.080;2023-07-13T08:48:42;32.60;54.10
70107;DHT22;57473;37.508;15.080;2023-07-13T08:51:40;32.70;54.20
70107;DHT22;57473;37.508;15.080;2023-07-13T08:54:41;32.70;54.00
70107;DHT22;57473;37.508;15.080;2023-07-13T08:57:15;32.80;54.10
70107;DHT22;57473;37.508;15.080;2023-07-13T08:59:44;32.80;54.50
70107;DHT22;57473;37.508;15.080;2023-07-13T09:02:40;32.90;53.90
70107;DHT22;57473;37.508;15.080;2023-07-13T09:05:18;32.90;54.30
70107;DHT22;57473;37.508;15.080;2023-07-13T09:08:00;32.90;54.30
70107;DHT22;57473;37.508;15.080;2023-07-13T09:10:41;33.20;53.40
70107;DHT22;57473;37.508;15.080;2023-07-13T09:13:30;33.20;53.00
70107;DHT22;57473;37.508;15.080;2023-07-13T09:16:01;33.10;51.90
70107;DHT22;57473;37.508;15.080;2023-07-13T09:18:44;33.10;52.20
70107;DHT22;57473;37.508;15.080;2023-07-13T09:21:32;32.90;51.90
70107;DHT22;57473;37.508;15.080;2023-07-13T09:24:26;32.70;51.10
70107;DHT22;57473;37.508;15.080;2023-07-13T09:26:56;32.60;51.80
70107;DHT22;57473;37.508;15.080;2023-07-13T09:29:29;32.20;52.60
70107;DHT22;57473;37.508;15.080;2023-07-13T09:32:00;32.10;53.30
70107;DHT22;57473;37.508;15.080;2023-07-13T09:34:28;32.10;53.60
70107;DHT22;57473;37.508;15.080;2023-07-13T09:36:57;32.40;52.80
70107;DHT22;57473;37.508;15.080;2023-07-13T09:39:37;32.60;51.90
70107;DHT22;57473;37.508;15.080;2023-07-13T09:42:16;32.70;51.60
70107;DHT22;57473;37.508;15.080;2023-07-13T09:44:54;32.90;50.90
70107;DHT22;57473;37.508;15.080;2023-07-13T09:47:27;32.70;50.50
70107;DHT22;57473;37.508;15.080;2023-07-13T09:49:57;32.70;51.10
70107;DHT22;57473;37.508;15.080;2023-07-13T09:52:40;32.80;50.50
70107;DHT22;57473;37.508;15.080;2023-07-13T09:55:31;32.90;50.20
70107;DHT22;57473;37.508;15.080;2023-07-13T10:00:32;32.60;48.80
70107;DHT22;57473;37.508;15.080;2023-07-13T10:03:03;32.50;49.70
70107;DHT22;57473;37.508;15.080;2023-07-13T10:05:39;32.50;48.60
70107;DHT22;57473;37.508;15.080;2023-07-13T10:08:34;32.50;49.00
70107;DHT22;57473;37.508;15.080;2023-07-13T10:11:12;32.70;48.80
70107;DHT22;57473;37.508;15.080;2023-07-13T10:14:02;32.80;48.40
70107;DHT22;57473;37.508;15.080;2023-07-13T10:16:32;32.90;47.20
70107;DHT22;57473;37.508;15.080;2023-07-13T10:19:17;33.10;47.20
70107;DHT22;57473;37.508;15.080;2023-07-13T10:21:55;33.00;47.20
70107;DHT22;57473;37.508;15.080;2023-07-13T10:24:25;33.10;47.10
70107;DHT22;57473;37.508;15.080;2023-07-13T10:27:10;33.10;46.50
70107;DHT22;57473;37.508;15.080;2023-07-13T10:30:26;33.30;46.50
70107;DHT22;57473;37.508;15.080;2023-07-13T10:32:45;33.40;45.60
70107;DHT22;57473;37.508;15.080;2023-07-13T10:35:14;33.60;45.00
70107;DHT22;57473;37.508;15.080;2023-07-13T10:37:52;33.50;44.70
70107;DHT22;57473;37.508;15.080;2023-07-13T10:40:38;33.50;44.60
70107;DHT22;57473;37.508;15.080;2023-07-13T10:43:15;33.40;44.20
70107;DHT22;57473;37.508;15.080;2023-07-13T10:45:46;33.50;45.80
70107;DHT22;57473;37.508;15.080;2023-07-13T10:48:17;33.70;45.90
70107;DHT22;57473;37.508;15.080;2023-07-13T10:50:46;33.80;46.40
70107;DHT22;57473;37.508;15.080;2023-07-13T10:53:29;33.60;48.10
70107;DHT22;57473;37.508;15.080;2023-07-13T10:56:05;33.50;48.60
70107;DHT22;57473;37.508;15.080;2023-07-13T10:58:41;33.60;47.90
70107;DHT22;57473;37.508;15.080;2023-07-13T11:01:12;33.50;48.10
70107;DHT22;57473;37.508;15.080;2023-07-13T11:14:04;33.90;50.10
70107;DHT22;57473;37.508;15.080;2023-07-13T11:16:46;34.60;49.20
70107;DHT22;57473;37.508;15.080;2023-07-13T11:22:11;35.60;46.70
70107;DHT22;57473;37.508;15.080;2023-07-13T11:24:59;35.80;47.00
70107;DHT22;57473;37.508;15.080;2023-07-13T11:27:42;36.40;46.40
70107;DHT22;57473;37.508;15.080;2023-07-13T11:30:22;36.20;46.90
70107;DHT22;57473;37.508;15.080;2023-07-13T11:33:03;37.00;44.50
70107;DHT22;57473;37.508;15.080;2023-07-13T11:35:36;37.40;43.70
70107;DHT22;57473;37.508;15.080;2023-07-13T11:38:24;37.20;42.50
70107;DHT22;57473;37.508;15.080;2023-07-13T11:40:56;37.50;42.60
70107;DHT22;57473;37.508;15.080;2023-07-13T11:43:25;37.70;41.90
70107;DHT22;57473;37.508;15.080;2023-07-13T11:45:52;37.60;41.70
70107;DHT22;57473;37.508;15.080;2023-07-13T11:48:26;37.40;41.20
70107;DHT22;57473;37.508;15.080;2023-07-13T11:51:19;37.50;41.70
70107;DHT22;57473;37.508;15.080;2023-07-13T11:53:50;38.30;40.60
70107;DHT22;57473;37.508;15.080;2023-07-13T11:56:18;38.20;40.70
70107;DHT22;57473;37.508;15.080;2023-07-13T11:58:50;38.30;40.30
70107;DHT22;57473;37.508;15.080;2023-07-13T12:01:23;38.50;40.40
70107;DHT22;57473;37.508;15.080;2023-07-13T12:03:53;38.20;40.90
70107;DHT22;57473;37.508;15.080;2023-07-13T12:06:33;38.60;40.60
70107;DHT22;57473;37.508;15.080;2023-07-13T12:09:38;38.40;41.00
70107;DHT22;57473;37.508;15.080;2023-07-13T12:12:18;38.40;41.40
70107;DHT22;57473;37.508;15.080;2023-07-13T12:15:42;38.10;41.60
70107;DHT22;57473;37.508;15.080;2023-07-13T12:18:31;37.80;42.20
70107;DHT22;57473;37.508;15.080;2023-07-13T12:21:30;37.50;41.80
70107;DHT22;57473;37.508;15.080;2023-07-13T12:24:40;37.70;42.20
70107;DHT22;57473;37.508;15.080;2023-07-13T12:27:30;38.50;40.10
70107;DHT22;57473;37.508;15.080;2023-07-13T12:30:31;38.70;40.10
70107;DHT22;57473;37.508;15.080;2023-07-13T12:33:15;38.60;39.60
70107;DHT22;57473;37.508;15.080;2023-07-13T12:35:48;38.40;40.10
70107;DHT22;57473;37.508;15.080;2023-07-13T12:38:19;38.70;40.20
70107;DHT22;57473;37.508;15.080;2023-07-13T12:40:50;38.50;40.30
70107;DHT22;57473;37.508;15.080;2023-07-13T12:43:22;38.30;40.40
70107;DHT22;57473;37.508;15.080;2023-07-13T12:46:04;38.90;38.80
70107;DHT22;57473;37.508;15.080;2023-07-13T12:48:38;38.90;39.30
70107;DHT22;57473;37.508;15.080;2023-07-13T12:51:27;38.90;39.30
70107;DHT22;57473;37.508;15.080;2023-07-13T12:54:16;39.10;39.10
70107;DHT22;57473;37.508;15.080;2023-07-13T12:56:49;38.90;38.90
70107;DHT22;57473;37.508;15.080;2023-07-13T12:59:21;39.30;37.30
70107;DHT22;57473;37.508;15.080;2023-07-13T13:01:50;39.50;37.30
70107;DHT22;57473;37.508;15.080;2023-07-13T13:04:18;39.90;36.70
70107;DHT22;57473;37.508;15.080;2023-07-13T13:07:00;39.50;36.90
70107;DHT22;57473;37.508;15.080;2023-07-13T13:09:28;39.40;37.80
70107;DHT22;57473;37.508;15.080;2023-07-13T13:11:56;39.60;37.40
70107;DHT22;57473;37.508;15.080;2023-07-13T13:14:23;40.00;35.90
70107;DHT22;57473;37.508;15.080;2023-07-13T13:16:51;39.50;37.20
70107;DHT22;57473;37.508;15.080;2023-07-13T13:19:28;39.20;37.40
70107;DHT22;57473;37.508;15.080;2023-07-13T13:21:56;39.30;36.90
70107;DHT22;57473;37.508;15.080;2023-07-13T13:24:26;39.40;36.70
70107;DHT22;57473;37.508;15.080;2023-07-13T13:26:54;39.10;37.70
70107;DHT22;57473;37.508;15.080;2023-07-13T13:29:25;39.10;36.80
70107;DHT22;57473;37.508;15.080;2023-07-13T13:31:57;39.30;36.80
70107;DHT22;57473;37.508;15.080;2023-07-13T13:34:25;39.10;36.90
70107;DHT22;57473;37.508;15.080;2023-07-13T13:36:54;39.40;37.20
70107;DHT22;57473;37.508;15.080;2023-07-13T13:39:33;39.80;36.20
70107;DHT22;57473;37.508;15.080;2023-07-13T13:42:01;40.10;35.40
70107;DHT22;57473;37.508;15.080;2023-07-13T13:44:35;40.00;35.10
70107;DHT22;57473;37.508;15.080;2023-07-13T13:47:10;40.00;35.10
70107;DHT22;57473;37.508;15.080;2023-07-13T13:49:41;39.90;35.10
70107;DHT22;57473;37.508;15.080;2023-07-13T13:52:09;39.80;35.00
70107;DHT22;57473;37.508;15.080;2023-07-13T13:54:37;39.90;35.40
70107;DHT22;57473;37.508;15.080;2023-07-13T13:57:12;39.80;35.50
70107;DHT22;57473;37.508;15.080;2023-07-13T14:00:15;39.90;35.50
70107;DHT22;57473;37.508;15.080;2023-07-13T14:02:48;39.20;35.30
70107;DHT22;57473;37.508;15.080;2023-07-13T14:05:23;38.50;35.00
70107;DHT22;57473;37.508;15.080;2023-07-13T14:07:54;38.90;35.70
70107;DHT22;57473;37.508;15.080;2023-07-13T14:10:31;39.10;35.20
70107;DHT22;57473;37.508;15.080;2023-07-13T14:13:21;39.00;35.60
70107;DHT22;57473;37.508;15.080;2023-07-13T14:15:57;39.40;34.60
70107;DHT22;57473;37.508;15.080;2023-07-13T14:18:37;39.30;35.00
70107;DHT22;57473;37.508;15.080;2023-07-13T14:21:19;39.30;34.70
70107;DHT22;57473;37.508;15.080;2023-07-13T14:23:54;39.20;34.70
70107;DHT22;57473;37.508;15.080;2023-07-13T14:26:24;38.90;34.90
70107;DHT22;57473;37.508;15.080;2023-07-13T14:28:56;39.00;35.00
70107;DHT22;57473;37.508;15.080;2023-07-13T14:31:28;39.20;34.90
70107;DHT22;57473;37.508;15.080;2023-07-13T14:34:14;39.40;34.90
70107;DHT22;57473;37.508;15.080;2023-07-13T14:36:49;39.90;34.10
70107;DHT22;57473;37.508;15.080;2023-07-13T14:39:26;39.00;35.00
70107;DHT22;57473;37.508;15.080;2023-07-13T14:42:00;37.50;37.30
70107;DHT22;57473;37.508;15.080;2023-07-13T14:44:42;36.20;39.50
70107;DHT22;57473;37.508;15.080;2023-07-13T14:47:10;35.90;40.20
70107;DHT22;57473;37.508;15.080;2023-07-13T14:49:42;35.80;40.70
70107;DHT22;57473;37.508;15.080;2023-07-13T14:52:19;35.80;40.70
70107;DHT22;57473;37.508;15.080;2023-07-13T14:55:00;36.00;40.50
70107;DHT22;57473;37.508;15.080;2023-07-13T14:57:28;35.80;41.40
70107;DHT22;57473;37.508;15.080;2023-07-13T14:59:57;35.60;40.50
70107;DHT22;57473;37.508;15.080;2023-07-13T15:02:35;35.20;41.50
70107;DHT22;57473;37.508;15.080;2023-07-13T15:05:26;35.10;41.90
70107;DHT22;57473;37.508;15.080;2023-07-13T15:08:03;35.00;42.20
70107;DHT22;57473;37.508;15.080;2023-07-13T15:10:34;34.80;42.50
70107;DHT22;57473;37.508;15.080;2023-07-13T15:13:19;34.60;42.60
70107;DHT22;57473;37.508;15.080;2023-07-13T15:15:49;34.60;42.00
70107;DHT22;57473;37.508;15.080;2023-07-13T15:18:21;34.80;41.10
70107;DHT22;57473;37.508;15.080;2023-07-13T15:20:51;34.30;41.00
70107;DHT22;57473;37.508;15.080;2023-07-13T15:23:20;34.10;41.30
70107;DHT22;57473;37.508;15.080;2023-07-13T15:25:49;33.90;42.00
70107;DHT22;57473;37.508;15.080;2023-07-13T15:28:17;34.00;40.90
70107;DHT22;57473;37.508;15.080;2023-07-13T15:30:47;34.10;40.20
70107;DHT22;57473;37.508;15.080;2023-07-13T15:33:27;34.20;39.70
70107;DHT22;57473;37.508;15.080;2023-07-13T15:35:55;34.10;40.20
70107;DHT22;57473;37.508;15.080;2023-07-13T15:38:29;34.20;38.70
70107;DHT22;57473;37.508;15.080;2023-07-13T15:40:57;33.90;38.50
70107;DHT22;57473;37.508;15.080;2023-07-13T15:43:26;33.80;40.50
70107;DHT22;57473;37.508;15.080;2023-07-13T15:45:53;33.80;39.50
70107;DHT22;57473;37.508;15.080;2023-07-13T15:48:22;33.90;40.40
70107;DHT22;57473;37.508;15.080;2023-07-13T15:50:55;34.00;38.40
70107;DHT22;57473;37.508;15.080;2023-07-13T15:53:33;34.10;38.10
70107;DHT22;57473;37.508;15.080;2023-07-13T15:56:02;34.20;38.40
70107;DHT22;57473;37.508;15.080;2023-07-13T15:58:37;34.20;37.60
70107;DHT22;57473;37.508;15.080;2023-07-13T16:01:06;34.20;37.80
70107;DHT22;57473;37.508;15.080;2023-07-13T16:03:35;34.30;38.50
70107;DHT22;57473;37.508;15.080;2023-07-13T16:06:03;34.30;39.10
70107;DHT22;57473;37.508;15.080;2023-07-13T16:08:31;34.20;39.40
70107;DHT22;57473;37.508;15.080;2023-07-13T16:11:00;34.20;39.00
70107;DHT22;57473;37.508;15.080;2023-07-13T16:13:27;34.10;40.20
70107;DHT22;57473;37.508;15.080;2023-07-13T16:15:54;34.10;40.10